UUOO/VOZ METAR and TAF weather

Enter ICAO airport designator
Station Type Date Time Source
UUOO METAR 2019/02/16 03:00 UTC NOAA

UUOO 160300Z 30008MPS 9999 OVC039 01/M01 Q1013 R30/190055 NOSIG RMK QFE746


Station Type Date Time Source
UUOO Decoded METAR 2019/02/16 03:00 UTC NOAA

Voronez, Russia (UUOO) 51-39N 039-15E 104M
Feb 15, 2019 - 10:00 PM EST / 2019.02.16 0300 UTC
Wind: from the WNW (300 degrees) at 18 MPH (16 KT):0
Visibility: greater than 7 mile(s):0
Sky conditions: overcast
Temperature: 33 F (1 C)
Windchill: 21 F (-6 C):1
Dew Point: 30 F (-1 C)
Relative Humidity: 86%
Pressure (altimeter): 29.91 in. Hg (1013 hPa)
ob: UUOO 160300Z 30008MPS 9999 OVC039 01/M01 Q1013 R30/190055 NOSIG RMK QFE746
cycle: 3

Station Type Date Time Source
UUOO TAF 2018/12/04 17:51 UTC NOAA

TAF
AMD TAF
AMD UUOO 041549Z 0417/0524 14004MPS 0600 FZFG VV002
TEMPO 0418/0421 1400 FZDZ BR VV002


Example: see airport list